• Join FlightAware (Why Join?)
  • Login
  • US Flag 
09:03PM EDT


 

Airport Tracker/Info


-or-


 

Live Flight TrackerFlight Track Log ✈ AMX682 ✈ 26-Apr-2013 ✈ MMMX / MEX - KORD

Flight Track Log - Related Links

Times and Time Zones

All times are in EDT time to prevent confusion due to time zone crossing. See the AMX682 flight status page for this flight to view local times or setup timezone preferences in your user account.

Time Position Orientation Groundspeed Altitude Reporting Facility
EDT Latitude Longitude Course Direction KTS MPH feet Rate Location/Type
09:13PM 24.9683 -97.2389 13° North 446 513 39,000  Level Houston Center
09:14PM 25.0897 -97.2081 13° North 446 513 39,000 -60 Level Houston Center
09:15PM 25.2092 -97.1811 12° North 444 511 38,900  Descending Houston Center
09:16PM 25.3300 -97.1525 12° North 443 510 39,000  Climbing Houston Center
09:17PM 25.4494 -97.1256 12° North 439 505 38,900  Descending Houston Center
09:18PM 25.5900 -97.0925 12° North 439 505 39,000  Climbing Houston Center
09:19PM 25.7111 -97.0647 12° North 444 511 39,000  Level Houston Center
09:20PM 25.8411 -97.0361 11° North 442 509 39,000  Level Houston Center
09:22PM 25.9628 -97.0086 11° North 446 513 39,000  Level Houston Center
09:23PM 26.0839 -96.9706 16° North 451 519 39,000  Level Houston Center
09:24PM 26.2150 -96.9150 21° North 465 535 39,000  Level Houston Center
09:25PM 26.3356 -96.8647 20° North 463 533 39,000  Level Houston Center
09:26PM 26.4569 -96.8156 20° North 463 533 39,000  Level Houston Center
09:27PM 26.5603 -96.7711 21° North 461 531 39,000 -60 Level Houston Center
09:28PM 26.7017 -96.7139 20° North 452 520 38,900 -60 Descending Houston Center
09:29PM 26.8206 -96.6667 20° North 453 521 38,900  Level Houston Center
09:30PM 26.9392 -96.6214 19° North 451 519 39,000  Climbing Houston Center
09:31PM 27.0564 -96.5778 18° North 447 514 39,000  Level Houston Center
09:32PM 27.1875 -96.5289 18° North 447 514 39,000  Level Houston Center
09:33PM 27.3069 -96.4856 18° North 450 518 39,000  Level Houston Center
09:34PM 27.4247 -96.4422 18° North 448 516 39,000  Level Houston Center
09:35PM 27.5428 -96.4000 18° North 445 512 39,000  Level Houston Center
09:36PM 27.6600 -96.3586 17° North 443 510 39,000  Level Houston Center
09:37PM 27.7761 -96.3219 16° North 438 504 39,000  Level Houston Center
09:38PM 27.8931 -96.2844 16° North 436 502 39,000  Level Houston Center
09:39PM 28.0092 -96.2475 16° North 434 499 39,000 -60 Level Houston Center
09:40PM 28.1269 -96.2128 15° North 436 502 38,900  Descending Houston Center
09:41PM 28.2453 -96.1767 15° North 440 506 39,000  Climbing Houston Center
09:42PM 28.3881 -96.1336 15° North 443 510 39,000 -60 Level Houston Center
09:43PM 28.5064 -96.0900 18° North 453 521 38,900 -60 Descending Houston Center
09:44PM 28.6228 -96.0347 23° Northeast 455 524 38,900  Level Houston Center
09:45PM 28.7383 -95.9761 24° Northeast 454 522 38,900  Level Houston Center
09:46PM 28.8478 -95.9172 25° Northeast 455 524 39,000  Climbing Houston Center
09:47PM 28.9636 -95.8589 24° Northeast 453 521 39,000  Level Houston Center
09:48PM 29.0786 -95.8011 24° Northeast 451 519 39,000  Level Houston Center
09:49PM 29.1936 -95.7428 24° Northeast 452 520 39,000  Level Houston Center
09:50PM 29.3328 -95.6725 24° Northeast 454 522 39,000  Level Houston Center
09:51PM 29.4497 -95.6128 24° Northeast 455 524 39,000  Level Houston Center
09:52PM 29.5686 -95.5536 23° Northeast 459 528 39,000  Level Houston Center
09:53PM 29.6881 -95.4914 24° Northeast 465 535 39,000  Level Houston Center
09:54PM 29.8078 -95.4303 24° Northeast 465 535 39,000  Level Houston Center
09:55PM 29.9283 -95.3686 24° Northeast 468 539 39,000  Level Houston Center
09:56PM 30.0450 -95.3064 25° Northeast 464 534 39,000  Level Houston Center
09:57PM 30.1625 -95.2456 24° Northeast 460 529 39,000  Level Houston Center
09:58PM 30.2792 -95.1844 24° Northeast 459 528 39,000  Level Houston Center
09:59PM 30.3961 -95.1239 24° Northeast 460 529 39,000  Level Houston Center
10:00PM 30.5083 -95.0619 25° Northeast 448 516 39,000  Level Houston Center
10:01PM 30.6253 -95.0014 24° Northeast 453 521 39,000  Level Houston Center
10:02PM 30.7433 -94.9386 25° Northeast 459 528 39,000  Level Houston Center
10:03PM 30.8611 -94.8764 24° Northeast 463 533 39,000  Level Houston Center
10:04PM 30.9367 -94.8392 23° Northeast 455 524 39,000  Level Fort Worth Center
10:05PM 31.0481 -94.7753 26° Northeast 455 524 39,000  Level Fort Worth Center
10:06PM 31.1556 -94.7214 23° Northeast 464 534 39,000  Level Fort Worth Center
10:07PM 31.2875 -94.6447 26° Northeast 464 534 39,000  Level Fort Worth Center
10:08PM 31.3839 -94.5689 34° Northeast 463 533 39,000  Level Fort Worth Center
10:09PM 31.5008 -94.4847 32° Northeast 470 541 39,000  Level Fort Worth Center
10:10PM 31.6117 -94.4056 31° Northeast 475 547 39,000  Level Fort Worth Center
10:11PM 31.7247 -94.3286 30° Northeast 475 547 39,000  Level Fort Worth Center
10:12PM 31.8333 -94.2492 32° Northeast 470 541 39,000  Level Fort Worth Center
10:13PM 31.9461 -94.1719 30° Northeast 464 534 39,000  Level Fort Worth Center
10:14PM 32.0589 -94.0919 31° Northeast 464 534 39,000  Level Fort Worth Center
10:15PM 32.1694 -94.0119 31° Northeast 464 534 39,000  Level Fort Worth Center
10:16PM 32.2822 -93.9292 32° Northeast 464 534 39,000  Level Fort Worth Center
10:17PM 32.3947 -93.8508 30° Northeast 464 534 39,000  Level Fort Worth Center
10:18PM 32.5050 -93.7703 32° Northeast 464 534 39,000  Level Fort Worth Center
10:19PM 32.6178 -93.6942 30° Northeast 464 534 39,000  Level Fort Worth Center
10:20PM 32.7258 -93.6131 32° Northeast 464 534 39,000  Level Fort Worth Center
10:21PM 32.8342 -93.5344 31° Northeast 464 534 39,000  Level Fort Worth Center
10:22PM 32.9444 -93.4578 30° Northeast 459 528 39,000  Level Fort Worth Center
10:23PM 33.0547 -93.3786 31° Northeast 459 528 39,000  Level Fort Worth Center
10:24PM 33.1628 -93.2992 32° Northeast 454 522 39,000  Level Fort Worth Center
10:25PM 33.3567 -93.1625 30° Northeast 451 519 39,000  Level Memphis Center
10:26PM 33.4628 -93.0839 32° Northeast 451 519 39,000  Level Memphis Center
10:27PM 33.5750 -93.0050 30° Northeast 456 525 39,000  Level Memphis Center
10:28PM 33.6853 -92.9236 32° Northeast 456 525 39,000  Level Memphis Center
10:29PM 33.7933 -92.8417 32° Northeast 456 525 39,000  Level Memphis Center
10:30PM 33.9033 -92.7647 30° Northeast 461 531 39,000  Level Memphis Center
10:31PM 34.0156 -92.6803 32° Northeast 461 531 39,000  Level Memphis Center
10:32PM 34.1192 -92.6003 33° Northeast 461 531 39,000  Level Memphis Center
10:33PM 34.2314 -92.5128 33° Northeast 461 531 39,000  Level Memphis Center
10:34PM 34.3414 -92.4325 31° Northeast 461 531 39,000  Level Memphis Center
10:35PM 34.4533 -92.3494 31° Northeast 461 531 39,000  Level Memphis Center
10:36PM 34.5653 -92.2639 32° Northeast 461 531 39,000  Level Memphis Center
10:37PM 34.6789 -92.1831 30° Northeast 461 531 39,000  Level Memphis Center
10:38PM 34.7964 -92.1475 14° North 447 514 39,000  Level Memphis Center
10:39PM 34.9181 -92.1097 14° North 442 509 39,000  Level Memphis Center
10:40PM 35.0372 -92.0767 13° North 442 509 39,000  Level Memphis Center
10:41PM 35.1631 -92.0436 12° North 437 503 39,000  Level Memphis Center
10:42PM 35.2844 -92.0078 14° North 443 510 39,000  Level Memphis Center
10:43PM 35.4081 -91.9697 14° North 443 510 39,000  Level Memphis Center
10:44PM 35.5314 -91.9336 13° North 448 516 39,000  Level Memphis Center
10:45PM 35.6569 -91.9003 12° North 453 521 39,000  Level Memphis Center
10:46PM 35.7806 -91.8642 13° North 453 521 39,000  Level Memphis Center
10:47PM 35.8978 -91.8278 14° North 448 516 39,000  Level Memphis Center
10:48PM 36.0150 -91.7914 14° North 434 499 39,000  Level Memphis Center
10:49PM 36.1342 -91.7575 13° North 434 499 39,000  Level Memphis Center
10:50PM 36.2575 -91.7211 13° North 439 505 39,000  Level Memphis Center
10:52PM 36.4178 -91.6708 14° North 447 514 39,000  Level Kansas City Center
10:53PM 36.5392 -91.6353 13° North 449 517 39,000  Level Kansas City Center
10:54PM 36.6703 -91.5944 14° North 448 516 39,000  Level Kansas City Center
10:55PM 36.7944 -91.5578 13° North 453 521 39,000  Level Kansas City Center
10:56PM 36.9164 -91.5233 13° North 452 520 39,000  Level Kansas City Center
10:57PM 37.0375 -91.4869 13° North 449 517 39,000  Level Kansas City Center
10:58PM 37.1617 -91.4500 13° North 452 520 39,000  Level Kansas City Center
10:59PM 37.3119 -91.4022 14° North 458 527 39,000  Level Kansas City Center
11:00PM 37.4367 -91.3625 14° North 459 528 39,000  Level Kansas City Center
11:01PM 37.5633 -91.3236 14° North 463 533 39,000  Level Kansas City Center
11:02PM 37.6869 -91.2858 14° North 463 533 39,000  Level Kansas City Center
11:03PM 37.8131 -91.2475 14° North 463 533 39,000  Level Kansas City Center
11:04PM 37.9381 -91.2081 14° North 464 534 39,000  Level Kansas City Center
11:05PM 38.0633 -91.1681 14° North 464 534 39,000  Level Kansas City Center
11:06PM 38.1908 -91.1283 14° North 466 536 39,000  Level Kansas City Center
11:07PM 38.3181 -91.0906 13° North 468 539 39,000  Level Kansas City Center
11:08PM 38.4442 -91.0508 14° North 466 536 39,000  Level Kansas City Center
11:09PM 38.5697 -91.0117 14° North 464 534 39,000  Level Kansas City Center
11:10PM 38.6956 -90.9714 14° North 463 533 39,000  Level Kansas City Center
11:11PM 38.8186 -90.9067 22° Northeast 472 543 39,000  Level Kansas City Center
11:12PM 38.9408 -90.8389 23° Northeast 473 544 39,000  Level Kansas City Center
11:13PM 39.0633 -90.7733 23° Northeast 474 545 39,000  Level Kansas City Center
11:14PM 39.1853 -90.7075 23° Northeast 472 543 39,000 -360 Level Kansas City Center
11:15PM 39.3056 -90.6403 23° Northeast 469 540 38,300 -840 Descending Kansas City Center
11:16PM 39.4275 -90.5731 23° Northeast 473 544 37,400 -960 Descending Kansas City Center
11:17PM 39.5506 -90.5053 23° Northeast 478 550 36,400 -960 Descending Kansas City Center
11:18PM 39.6744 -90.4361 23° Northeast 482 555 35,500 -1,080 Descending Kansas City Center
11:19PM 39.8194 -90.3564 23° Northeast 487 560 34,300 -1,200 Descending Kansas City Center
11:20PM 39.9192 -90.2986 24° Northeast 494 568 33,500 -780 Descending Chicago Center
11:21PM 40.0406 -90.2303 23° Northeast 480 552 33,000 -300 Descending Chicago Center
11:22PM 40.1614 -90.1614 24° Northeast 474 545 33,000  Level Chicago Center
11:23PM 40.2803 -90.0944 23° Northeast 468 539 33,000  Level Chicago Center
11:24PM 40.3942 -90.0122 29° Northeast 471 542 33,000  Level Chicago Center
11:25PM 40.4956 -89.8964 41° Northeast 474 545 33,000  Level Chicago Center
11:26PM 40.5925 -89.7828 42° Northeast 469 540 33,000 -900 Level Chicago Center
11:27PM 40.6922 -89.6719 40° Northeast 469 540 31,300 -2,100 Descending Chicago Center
11:28PM 40.7894 -89.5592 41° Northeast 467 537 28,800 -2,520 Descending Chicago Center
11:29PM 40.8953 -89.4364 41° Northeast 455 524 26,200 -2,340 Descending Chicago Center
11:30PM 40.9861 -89.3311 41° Northeast 439 505 24,100 -2,100 Descending Chicago Center
11:31PM 41.0725 -89.2300 41° Northeast 416 479 22,000 -1,920 Descending Chicago Center
11:32PM 41.1442 -89.1450 42° Northeast 399 459 20,300 -1,800 Descending Chicago Center
11:33PM 41.2222 -89.0539 41° Northeast 378 435 18,400 -1,920 Descending Chicago Center
11:34PM 41.3086 -88.9497 42° Northeast 352 405 16,400 -1,920 Descending Chicago Center
11:35PM 41.3808 -88.8642 42° Northeast 347 399 14,500 -1,920 Descending Chicago Center
11:36PM 41.4522 -88.7789 42° Northeast 346 398 12,600 -1,740 Descending Chicago Center
11:37PM 41.5203 -88.6875 45° Northeast 349 402 11,000 -840 Descending Chicago Center
11:38PM 41.5639 -88.5772 62° Northeast 339 390 11,000  Level Chicago Center
11:39PM 41.6086 -88.4661 62° Northeast 340 391 11,000  Level Chicago Center
11:40PM 41.6664 -88.3669 52° Northeast 338 389 11,000  Level Chicago Center
11:41PM 41.7256 -88.2664 52° Northeast 345 397 11,000 -180 Level Chicago Center
11:42PM 41.7981 -88.1947 36° Northeast 334 384 10,700 -600 Descending Chicago Center
11:43PM 41.8772 -88.1808 North 290 334 9,800 -1,440 Descending Chicago Center
11:44PM 41.9511 -88.1739 North 271 312 7,800 -1,680 Descending Chicago Center
11:45PM 42.0231 -88.1761 359° North 262 302 6,500 -1,560 Descending Chicago Center
11:46PM 42.0822 -88.1447 21° North 247 284 4,700 -1,380 Descending Chicago Center
11:47PM 42.1206 -88.0886 47° Northeast 226 260 3,800 -900 Descending Chicago Center
11:49PM 42.0833 -88.0167 125° Southeast 178 205 2,900 -840 Descending Chicago TRACON
11:51PM 42.0289 -87.9469 136° Southeast 157 181 1,400 -600 Descending Chicago Center
11:52PM 42.0019 -87.9131 137° Southeast 154 177 1,300 -120 Descending Chicago Center